sensor_id;sensor_type;location;lat;lon;timestamp;temperature;humidity
19248;DHT22;9758;48.640;8.148;2022-10-22T00:02:02;17.20;61.80
19248;DHT22;9758;48.640;8.148;2022-10-22T00:04:34;17.10;61.80
19248;DHT22;9758;48.640;8.148;2022-10-22T00:07:01;17.10;61.90
19248;DHT22;9758;48.640;8.148;2022-10-22T00:09:28;17.10;62.00
19248;DHT22;9758;48.640;8.148;2022-10-22T00:11:55;17.10;62.00
19248;DHT22;9758;48.640;8.148;2022-10-22T00:14:23;17.10;62.10
19248;DHT22;9758;48.640;8.148;2022-10-22T00:16:49;17.10;62.20
19248;DHT22;9758;48.640;8.148;2022-10-22T00:19:16;17.10;62.20
19248;DHT22;9758;48.640;8.148;2022-10-22T00:21:43;17.10;62.10
19248;DHT22;9758;48.640;8.148;2022-10-22T00:24:10;17.00;62.10
19248;DHT22;9758;48.640;8.148;2022-10-22T00:26:36;17.10;62.20
19248;DHT22;9758;48.640;8.148;2022-10-22T00:29:05;17.10;62.10
19248;DHT22;9758;48.640;8.148;2022-10-22T00:31:34;17.10;62.00
19248;DHT22;9758;48.640;8.148;2022-10-22T00:34:01;17.10;62.00
19248;DHT22;9758;48.640;8.148;2022-10-22T00:36:28;17.10;62.10
19248;DHT22;9758;48.640;8.148;2022-10-22T00:38:55;17.00;62.00
19248;DHT22;9758;48.640;8.148;2022-10-22T00:41:21;17.10;62.10
19248;DHT22;9758;48.640;8.148;2022-10-22T00:43:56;17.00;62.10
19248;DHT22;9758;48.640;8.148;2022-10-22T00:46:24;17.00;62.00
19248;DHT22;9758;48.640;8.148;2022-10-22T00:48:52;17.00;62.10
19248;DHT22;9758;48.640;8.148;2022-10-22T00:51:21;17.10;62.10
19248;DHT22;9758;48.640;8.148;2022-10-22T00:53:52;17.10;62.10
19248;DHT22;9758;48.640;8.148;2022-10-22T00:56:21;17.10;62.10
19248;DHT22;9758;48.640;8.148;2022-10-22T00:58:51;17.10;62.10
19248;DHT22;9758;48.640;8.148;2022-10-22T01:01:21;17.10;62.10
19248;DHT22;9758;48.640;8.148;2022-10-22T01:03:49;17.10;62.10
19248;DHT22;9758;48.640;8.148;2022-10-22T01:06:22;17.10;62.00
19248;DHT22;9758;48.640;8.148;2022-10-22T01:08:54;17.10;62.00
19248;DHT22;9758;48.640;8.148;2022-10-22T01:11:28;17.10;62.00
19248;DHT22;9758;48.640;8.148;2022-10-22T01:14:01;17.10;62.10
19248;DHT22;9758;48.640;8.148;2022-10-22T01:16:33;17.10;62.10
19248;DHT22;9758;48.640;8.148;2022-10-22T01:19:17;17.10;62.10
19248;DHT22;9758;48.640;8.148;2022-10-22T01:21:51;17.10;62.10
19248;DHT22;9758;48.640;8.148;2022-10-22T01:24:31;17.00;62.90
19248;DHT22;9758;48.640;8.148;2022-10-22T01:27:14;17.00;62.10
19248;DHT22;9758;48.640;8.148;2022-10-22T01:29:49;17.00;62.20
19248;DHT22;9758;48.640;8.148;2022-10-22T01:32:20;17.00;62.20
19248;DHT22;9758;48.640;8.148;2022-10-22T01:34:51;17.00;62.20
19248;DHT22;9758;48.640;8.148;2022-10-22T01:37:21;17.00;62.20
19248;DHT22;9758;48.640;8.148;2022-10-22T01:39:49;17.00;62.20
19248;DHT22;9758;48.640;8.148;2022-10-22T01:42:17;17.00;62.10
19248;DHT22;9758;48.640;8.148;2022-10-22T01:44:44;17.10;62.30
19248;DHT22;9758;48.640;8.148;2022-10-22T01:47:25;17.00;62.20
19248;DHT22;9758;48.640;8.148;2022-10-22T01:50:06;17.00;62.30
19248;DHT22;9758;48.640;8.148;2022-10-22T01:52:51;17.00;62.30
19248;DHT22;9758;48.640;8.148;2022-10-22T01:55:26;17.10;62.40
19248;DHT22;9758;48.640;8.148;2022-10-22T01:58:01;17.10;62.30
19248;DHT22;9758;48.640;8.148;2022-10-22T02:00:29;17.10;62.40
19248;DHT22;9758;48.640;8.148;2022-10-22T02:02:59;17.00;62.30
19248;DHT22;9758;48.640;8.148;2022-10-22T02:05:31;17.10;62.30
19248;DHT22;9758;48.640;8.148;2022-10-22T02:08:05;17.00;62.30
19248;DHT22;9758;48.640;8.148;2022-10-22T02:10:36;17.00;62.30
19248;DHT22;9758;48.640;8.148;2022-10-22T02:13:04;17.00;63.10
19248;DHT22;9758;48.640;8.148;2022-10-22T02:15:34;17.00;62.40
19248;DHT22;9758;48.640;8.148;2022-10-22T02:18:05;17.00;62.60
19248;DHT22;9758;48.640;8.148;2022-10-22T02:20:33;16.90;62.60
19248;DHT22;9758;48.640;8.148;2022-10-22T02:23:02;16.90;62.60
19248;DHT22;9758;48.640;8.148;2022-10-22T02:25:31;16.90;62.80
19248;DHT22;9758;48.640;8.148;2022-10-22T02:28:18;16.80;62.70
19248;DHT22;9758;48.640;8.148;2022-10-22T02:30:51;16.90;62.90
19248;DHT22;9758;48.640;8.148;2022-10-22T02:33:23;16.90;62.90
19248;DHT22;9758;48.640;8.148;2022-10-22T02:35:51;16.90;62.70
19248;DHT22;9758;48.640;8.148;2022-10-22T02:38:18;16.90;62.60
19248;DHT22;9758;48.640;8.148;2022-10-22T02:40:46;16.90;62.60
19248;DHT22;9758;48.640;8.148;2022-10-22T02:43:13;16.90;62.60
19248;DHT22;9758;48.640;8.148;2022-10-22T02:45:40;16.90;62.60
19248;DHT22;9758;48.640;8.148;2022-10-22T02:48:07;16.90;62.50
19248;DHT22;9758;48.640;8.148;2022-10-22T02:50:35;16.80;62.50
19248;DHT22;9758;48.640;8.148;2022-10-22T02:53:02;16.80;62.50
19248;DHT22;9758;48.640;8.148;2022-10-22T02:55:29;16.90;62.60
19248;DHT22;9758;48.640;8.148;2022-10-22T02:57:56;16.90;62.60
19248;DHT22;9758;48.640;8.148;2022-10-22T03:00:23;16.90;62.60
19248;DHT22;9758;48.640;8.148;2022-10-22T03:02:49;16.90;62.40
19248;DHT22;9758;48.640;8.148;2022-10-22T03:05:16;16.90;62.40
19248;DHT22;9758;48.640;8.148;2022-10-22T03:07:44;17.00;62.40
19248;DHT22;9758;48.640;8.148;2022-10-22T03:10:11;17.00;62.40
19248;DHT22;9758;48.640;8.148;2022-10-22T03:12:38;17.00;62.40
19248;DHT22;9758;48.640;8.148;2022-10-22T03:15:05;17.00;62.30
19248;DHT22;9758;48.640;8.148;2022-10-22T03:17:32;17.00;62.30
19248;DHT22;9758;48.640;8.148;2022-10-22T03:19:59;17.00;62.30
19248;DHT22;9758;48.640;8.148;2022-10-22T03:22:27;17.00;62.30
19248;DHT22;9758;48.640;8.148;2022-10-22T03:24:58;17.00;62.30
19248;DHT22;9758;48.640;8.148;2022-10-22T03:27:26;17.00;62.30
19248;DHT22;9758;48.640;8.148;2022-10-22T03:29:54;17.00;62.30
19248;DHT22;9758;48.640;8.148;2022-10-22T03:32:22;17.00;62.30
19248;DHT22;9758;48.640;8.148;2022-10-22T03:34:48;17.00;62.30
19248;DHT22;9758;48.640;8.148;2022-10-22T03:37:15;17.00;62.30
19248;DHT22;9758;48.640;8.148;2022-10-22T03:39:42;17.00;62.30
19248;DHT22;9758;48.640;8.148;2022-10-22T03:42:11;17.10;62.30
19248;DHT22;9758;48.640;8.148;2022-10-22T03:44:39;17.00;62.30
19248;DHT22;9758;48.640;8.148;2022-10-22T03:47:06;17.00;62.30
19248;DHT22;9758;48.640;8.148;2022-10-22T03:49:33;17.00;62.30
19248;DHT22;9758;48.640;8.148;2022-10-22T03:52:04;17.00;62.20
19248;DHT22;9758;48.640;8.148;2022-10-22T03:54:31;17.00;62.30
19248;DHT22;9758;48.640;8.148;2022-10-22T03:57:06;17.00;62.20
19248;DHT22;9758;48.640;8.148;2022-10-22T03:59:35;17.00;62.20
19248;DHT22;9758;48.640;8.148;2022-10-22T04:02:01;17.00;62.10
19248;DHT22;9758;48.640;8.148;2022-10-22T04:04:28;17.00;62.20
19248;DHT22;9758;48.640;8.148;2022-10-22T04:06:55;17.00;62.30
19248;DHT22;9758;48.640;8.148;2022-10-22T04:09:22;16.90;62.20
19248;DHT22;9758;48.640;8.148;2022-10-22T04:11:49;16.90;62.20
19248;DHT22;9758;48.640;8.148;2022-10-22T04:14:15;16.90;62.30
19248;DHT22;9758;48.640;8.148;2022-10-22T04:16:43;16.90;62.30
19248;DHT22;9758;48.640;8.148;2022-10-22T04:19:11;16.80;62.20
19248;DHT22;9758;48.640;8.148;2022-10-22T04:21:39;16.80;62.30
19248;DHT22;9758;48.640;8.148;2022-10-22T04:24:06;16.80;62.30
19248;DHT22;9758;48.640;8.148;2022-10-22T04:26:33;16.80;62.30
19248;DHT22;9758;48.640;8.148;2022-10-22T04:28:59;16.80;62.40
19248;DHT22;9758;48.640;8.148;2022-10-22T04:31:27;16.70;62.40
19248;DHT22;9758;48.640;8.148;2022-10-22T04:33:57;16.80;62.40
19248;DHT22;9758;48.640;8.148;2022-10-22T04:36:25;16.80;62.40
19248;DHT22;9758;48.640;8.148;2022-10-22T04:38:54;16.80;62.40
19248;DHT22;9758;48.640;8.148;2022-10-22T04:41:23;16.80;62.40
19248;DHT22;9758;48.640;8.148;2022-10-22T04:43:51;16.80;62.40
19248;DHT22;9758;48.640;8.148;2022-10-22T04:46:18;16.70;62.30
19248;DHT22;9758;48.640;8.148;2022-10-22T04:48:45;16.70;62.40
19248;DHT22;9758;48.640;8.148;2022-10-22T04:51:15;16.70;62.30
19248;DHT22;9758;48.640;8.148;2022-10-22T04:53:42;16.70;62.40
19248;DHT22;9758;48.640;8.148;2022-10-22T04:56:11;16.70;62.40
19248;DHT22;9758;48.640;8.148;2022-10-22T04:58:41;16.70;62.40
19248;DHT22;9758;48.640;8.148;2022-10-22T05:01:10;16.70;62.40
19248;DHT22;9758;48.640;8.148;2022-10-22T05:03:37;16.80;62.40
19248;DHT22;9758;48.640;8.148;2022-10-22T05:06:04;16.70;62.30
19248;DHT22;9758;48.640;8.148;2022-10-22T05:08:32;16.70;62.40
19248;DHT22;9758;48.640;8.148;2022-10-22T05:10:59;16.70;62.40
19248;DHT22;9758;48.640;8.148;2022-10-22T05:13:26;16.70;62.50
19248;DHT22;9758;48.640;8.148;2022-10-22T05:15:53;16.70;62.40
19248;DHT22;9758;48.640;8.148;2022-10-22T05:18:19;16.70;62.50
19248;DHT22;9758;48.640;8.148;2022-10-22T05:20:46;16.70;62.40
19248;DHT22;9758;48.640;8.148;2022-10-22T05:23:13;16.80;62.50
19248;DHT22;9758;48.640;8.148;2022-10-22T05:25:41;16.70;62.40
19248;DHT22;9758;48.640;8.148;2022-10-22T05:28:08;16.70;62.40
19248;DHT22;9758;48.640;8.148;2022-10-22T05:30:35;16.70;62.40
19248;DHT22;9758;48.640;8.148;2022-10-22T05:33:01;16.70;62.40
19248;DHT22;9758;48.640;8.148;2022-10-22T05:35:28;16.70;62.40
19248;DHT22;9758;48.640;8.148;2022-10-22T05:37:55;16.80;62.40
19248;DHT22;9758;48.640;8.148;2022-10-22T05:40:22;16.80;62.50
19248;DHT22;9758;48.640;8.148;2022-10-22T05:42:50;16.70;62.40
19248;DHT22;9758;48.640;8.148;2022-10-22T05:45:16;16.70;62.50
19248;DHT22;9758;48.640;8.148;2022-10-22T05:47:43;16.60;62.60
19248;DHT22;9758;48.640;8.148;2022-10-22T05:50:10;16.60;62.60
19248;DHT22;9758;48.640;8.148;2022-10-22T05:52:37;16.60;62.70
19248;DHT22;9758;48.640;8.148;2022-10-22T05:55:09;16.60;62.70
19248;DHT22;9758;48.640;8.148;2022-10-22T05:57:37;16.60;62.60
19248;DHT22;9758;48.640;8.148;2022-10-22T06:00:07;16.60;62.60
19248;DHT22;9758;48.640;8.148;2022-10-22T06:02:34;16.60;62.60
19248;DHT22;9758;48.640;8.148;2022-10-22T06:05:01;16.60;62.60
19248;DHT22;9758;48.640;8.148;2022-10-22T06:07:28;16.60;62.60
19248;DHT22;9758;48.640;8.148;2022-10-22T06:09:55;16.50;62.40
19248;DHT22;9758;48.640;8.148;2022-10-22T06:12:22;16.50;62.40
19248;DHT22;9758;48.640;8.148;2022-10-22T06:14:49;16.40;62.40
19248;DHT22;9758;48.640;8.148;2022-10-22T06:17:17;16.40;62.60
19248;DHT22;9758;48.640;8.148;2022-10-22T06:19:44;16.40;62.70
19248;DHT22;9758;48.640;8.148;2022-10-22T06:22:11;16.40;62.70
19248;DHT22;9758;48.640;8.148;2022-10-22T06:24:38;16.40;62.80
19248;DHT22;9758;48.640;8.148;2022-10-22T06:27:04;16.40;62.80
19248;DHT22;9758;48.640;8.148;2022-10-22T06:29:31;16.40;62.80
19248;DHT22;9758;48.640;8.148;2022-10-22T06:31:58;16.40;62.80
19248;DHT22;9758;48.640;8.148;2022-10-22T06:34:27;16.50;62.80
19248;DHT22;9758;48.640;8.148;2022-10-22T06:36:53;16.50;62.70
19248;DHT22;9758;48.640;8.148;2022-10-22T06:39:20;16.50;62.70
19248;DHT22;9758;48.640;8.148;2022-10-22T06:41:47;16.50;62.70
19248;DHT22;9758;48.640;8.148;2022-10-22T06:44:16;16.50;62.70
19248;DHT22;9758;48.640;8.148;2022-10-22T06:46:43;16.60;62.80
19248;DHT22;9758;48.640;8.148;2022-10-22T06:49:12;16.60;62.80
19248;DHT22;9758;48.640;8.148;2022-10-22T06:51:41;16.60;63.60
19248;DHT22;9758;48.640;8.148;2022-10-22T06:54:08;16.60;62.90
19248;DHT22;9758;48.640;8.148;2022-10-22T06:56:34;16.70;62.90
19248;DHT22;9758;48.640;8.148;2022-10-22T06:59:01;16.70;62.90
19248;DHT22;9758;48.640;8.148;2022-10-22T07:01:30;16.80;62.90
19248;DHT22;9758;48.640;8.148;2022-10-22T07:03:58;16.80;62.90
19248;DHT22;9758;48.640;8.148;2022-10-22T07:06:26;16.90;62.90
19248;DHT22;9758;48.640;8.148;2022-10-22T07:08:58;16.90;62.90
19248;DHT22;9758;48.640;8.148;2022-10-22T07:11:26;17.00;62.90
19248;DHT22;9758;48.640;8.148;2022-10-22T07:13:54;17.00;62.80
19248;DHT22;9758;48.640;8.148;2022-10-22T07:16:21;17.10;62.80
19248;DHT22;9758;48.640;8.148;2022-10-22T07:18:48;17.20;62.80
19248;DHT22;9758;48.640;8.148;2022-10-22T07:21:17;17.20;62.70
19248;DHT22;9758;48.640;8.148;2022-10-22T07:23:45;17.30;62.70
19248;DHT22;9758;48.640;8.148;2022-10-22T07:26:15;17.40;62.70
19248;DHT22;9758;48.640;8.148;2022-10-22T07:28:42;17.50;62.70
19248;DHT22;9758;48.640;8.148;2022-10-22T07:31:10;17.60;62.70
19248;DHT22;9758;48.640;8.148;2022-10-22T07:33:37;17.70;62.60
19248;DHT22;9758;48.640;8.148;2022-10-22T07:36:07;17.70;62.40
19248;DHT22;9758;48.640;8.148;2022-10-22T07:38:35;17.70;62.40
19248;DHT22;9758;48.640;8.148;2022-10-22T07:41:02;17.80;62.40
19248;DHT22;9758;48.640;8.148;2022-10-22T07:43:30;17.80;62.10
19248;DHT22;9758;48.640;8.148;2022-10-22T07:45:57;17.90;62.10
19248;DHT22;9758;48.640;8.148;2022-10-22T07:48:24;17.90;62.10
19248;DHT22;9758;48.640;8.148;2022-10-22T07:50:51;17.90;62.20
19248;DHT22;9758;48.640;8.148;2022-10-22T07:53:52;18.00;62.30
19248;DHT22;9758;48.640;8.148;2022-10-22T07:56:19;18.00;62.30
19248;DHT22;9758;48.640;8.148;2022-10-22T07:58:47;18.10;62.20
19248;DHT22;9758;48.640;8.148;2022-10-22T08:01:14;18.10;62.10
19248;DHT22;9758;48.640;8.148;2022-10-22T08:03:40;18.20;62.10
19248;DHT22;9758;48.640;8.148;2022-10-22T08:06:08;18.20;62.10
19248;DHT22;9758;48.640;8.148;2022-10-22T08:08:36;18.30;62.10
19248;DHT22;9758;48.640;8.148;2022-10-22T08:11:02;18.40;62.00
19248;DHT22;9758;48.640;8.148;2022-10-22T08:13:29;18.40;61.90
19248;DHT22;9758;48.640;8.148;2022-10-22T08:15:59;18.40;61.80
19248;DHT22;9758;48.640;8.148;2022-10-22T08:18:26;18.40;61.70
19248;DHT22;9758;48.640;8.148;2022-10-22T08:20:53;18.50;61.60
19248;DHT22;9758;48.640;8.148;2022-10-22T08:23:20;18.50;61.50
19248;DHT22;9758;48.640;8.148;2022-10-22T08:25:47;18.40;61.50
19248;DHT22;9758;48.640;8.148;2022-10-22T08:28:13;18.40;61.50
19248;DHT22;9758;48.640;8.148;2022-10-22T08:30:40;18.40;61.60
19248;DHT22;9758;48.640;8.148;2022-10-22T08:33:10;18.30;61.50
19248;DHT22;9758;48.640;8.148;2022-10-22T08:35:37;18.40;61.70
19248;DHT22;9758;48.640;8.148;2022-10-22T08:38:04;18.30;61.70
19248;DHT22;9758;48.640;8.148;2022-10-22T08:40:33;18.40;61.80
19248;DHT22;9758;48.640;8.148;2022-10-22T08:43:22;18.40;61.80
19248;DHT22;9758;48.640;8.148;2022-10-22T08:46:04;18.40;61.90
19248;DHT22;9758;48.640;8.148;2022-10-22T08:48:42;18.50;61.80
19248;DHT22;9758;48.640;8.148;2022-10-22T08:51:13;18.50;61.80
19248;DHT22;9758;48.640;8.148;2022-10-22T08:53:52;18.60;61.80
19248;DHT22;9758;48.640;8.148;2022-10-22T08:56:24;18.60;61.70
19248;DHT22;9758;48.640;8.148;2022-10-22T08:58:55;18.70;61.70
19248;DHT22;9758;48.640;8.148;2022-10-22T09:01:32;18.70;61.50
19248;DHT22;9758;48.640;8.148;2022-10-22T09:04:05;18.70;61.60
19248;DHT22;9758;48.640;8.148;2022-10-22T09:06:35;18.70;61.60
19248;DHT22;9758;48.640;8.148;2022-10-22T09:09:10;18.80;61.70
19248;DHT22;9758;48.640;8.148;2022-10-22T09:11:41;18.90;61.80
19248;DHT22;9758;48.640;8.148;2022-10-22T09:14:11;19.00;61.80
19248;DHT22;9758;48.640;8.148;2022-10-22T09:16:48;19.10;61.80
19248;DHT22;9758;48.640;8.148;2022-10-22T09:19:22;19.20;61.70
19248;DHT22;9758;48.640;8.148;2022-10-22T09:21:57;19.30;61.70
19248;DHT22;9758;48.640;8.148;2022-10-22T09:24:32;19.50;61.70
19248;DHT22;9758;48.640;8.148;2022-10-22T09:27:11;19.50;61.50
19248;DHT22;9758;48.640;8.148;2022-10-22T09:29:39;19.70;61.40
19248;DHT22;9758;48.640;8.148;2022-10-22T09:32:06;19.80;61.20
19248;DHT22;9758;48.640;8.148;2022-10-22T09:34:34;19.90;61.20
19248;DHT22;9758;48.640;8.148;2022-10-22T09:37:02;20.00;61.10
19248;DHT22;9758;48.640;8.148;2022-10-22T09:39:32;20.10;61.10
19248;DHT22;9758;48.640;8.148;2022-10-22T09:42:00;20.10;60.80
19248;DHT22;9758;48.640;8.148;2022-10-22T09:44:26;20.20;60.80
19248;DHT22;9758;48.640;8.148;2022-10-22T09:46:53;20.30;60.80
19248;DHT22;9758;48.640;8.148;2022-10-22T09:49:21;20.30;60.80
19248;DHT22;9758;48.640;8.148;2022-10-22T09:51:52;20.40;60.70
19248;DHT22;9758;48.640;8.148;2022-10-22T09:54:21;20.50;60.50
19248;DHT22;9758;48.640;8.148;2022-10-22T09:56:56;20.50;60.50
19248;DHT22;9758;48.640;8.148;2022-10-22T09:59:29;20.60;60.50
19248;DHT22;9758;48.640;8.148;2022-10-22T10:01:59;20.60;60.40
19248;DHT22;9758;48.640;8.148;2022-10-22T10:04:26;20.70;60.40
19248;DHT22;9758;48.640;8.148;2022-10-22T10:06:55;20.70;60.40
19248;DHT22;9758;48.640;8.148;2022-10-22T10:09:24;20.80;60.40
19248;DHT22;9758;48.640;8.148;2022-10-22T10:11:58;20.90;60.50
19248;DHT22;9758;48.640;8.148;2022-10-22T10:14:35;21.00;60.40
19248;DHT22;9758;48.640;8.148;2022-10-22T10:17:07;21.00;60.30
19248;DHT22;9758;48.640;8.148;2022-10-22T10:19:48;21.10;60.20
19248;DHT22;9758;48.640;8.148;2022-10-22T10:22:30;21.10;60.00
19248;DHT22;9758;48.640;8.148;2022-10-22T10:25:11;21.20;59.90
19248;DHT22;9758;48.640;8.148;2022-10-22T10:27:43;21.20;59.80
19248;DHT22;9758;48.640;8.148;2022-10-22T10:30:12;21.30;59.80
19248;DHT22;9758;48.640;8.148;2022-10-22T10:32:55;21.30;59.70
19248;DHT22;9758;48.640;8.148;2022-10-22T10:35:29;21.30;59.30
19248;DHT22;9758;48.640;8.148;2022-10-22T10:38:16;21.30;59.60
19248;DHT22;9758;48.640;8.148;2022-10-22T10:40:50;21.20;59.70
19248;DHT22;9758;48.640;8.148;2022-10-22T10:43:20;21.20;59.60
19248;DHT22;9758;48.640;8.148;2022-10-22T10:45:56;21.20;59.50
19248;DHT22;9758;48.640;8.148;2022-10-22T10:48:44;21.30;59.60
19248;DHT22;9758;48.640;8.148;2022-10-22T10:51:25;21.30;59.10
19248;DHT22;9758;48.640;8.148;2022-10-22T10:54:07;21.30;59.50
19248;DHT22;9758;48.640;8.148;2022-10-22T10:56:43;21.40;59.60
19248;DHT22;9758;48.640;8.148;2022-10-22T10:59:15;21.40;59.40
19248;DHT22;9758;48.640;8.148;2022-10-22T11:01:55;21.50;59.60
19248;DHT22;9758;48.640;8.148;2022-10-22T11:04:46;21.50;59.30
19248;DHT22;9758;48.640;8.148;2022-10-22T11:07:21;21.50;58.70
19248;DHT22;9758;48.640;8.148;2022-10-22T11:09:54;21.50;58.70
19248;DHT22;9758;48.640;8.148;2022-10-22T11:12:25;21.50;59.20
19248;DHT22;9758;48.640;8.148;2022-10-22T11:14:57;21.50;59.10
19248;DHT22;9758;48.640;8.148;2022-10-22T11:17:31;21.60;59.30
19248;DHT22;9758;48.640;8.148;2022-10-22T11:20:02;21.70;59.20
19248;DHT22;9758;48.640;8.148;2022-10-22T11:22:34;21.70;59.20
19248;DHT22;9758;48.640;8.148;2022-10-22T11:25:14;21.70;59.10
19248;DHT22;9758;48.640;8.148;2022-10-22T11:27:46;21.80;58.90
19248;DHT22;9758;48.640;8.148;2022-10-22T11:30:16;21.80;58.60
19248;DHT22;9758;48.640;8.148;2022-10-22T11:32:45;21.90;58.70
19248;DHT22;9758;48.640;8.148;2022-10-22T11:35:15;21.90;58.70
19248;DHT22;9758;48.640;8.148;2022-10-22T11:37:43;22.00;58.70
19248;DHT22;9758;48.640;8.148;2022-10-22T11:40:16;22.00;58.60
19248;DHT22;9758;48.640;8.148;2022-10-22T11:42:49;22.10;58.30
19248;DHT22;9758;48.640;8.148;2022-10-22T11:45:29;22.00;58.50
19248;DHT22;9758;48.640;8.148;2022-10-22T11:48:04;22.10;58.30
19248;DHT22;9758;48.640;8.148;2022-10-22T11:50:45;22.10;58.30
19248;DHT22;9758;48.640;8.148;2022-10-22T11:53:25;22.00;57.80
19248;DHT22;9758;48.640;8.148;2022-10-22T11:55:57;22.00;58.30
19248;DHT22;9758;48.640;8.148;2022-10-22T11:58:34;22.00;58.50
19248;DHT22;9758;48.640;8.148;2022-10-22T12:01:26;22.00;58.30
19248;DHT22;9758;48.640;8.148;2022-10-22T12:04:15;22.00;57.70
19248;DHT22;9758;48.640;8.148;2022-10-22T12:06:54;22.00;58.30
19248;DHT22;9758;48.640;8.148;2022-10-22T12:09:22;22.00;58.40
19248;DHT22;9758;48.640;8.148;2022-10-22T12:11:52;22.10;58.40
19248;DHT22;9758;48.640;8.148;2022-10-22T12:14:22;22.10;58.30
19248;DHT22;9758;48.640;8.148;2022-10-22T12:16:52;22.20;58.10
19248;DHT22;9758;48.640;8.148;2022-10-22T12:19:33;22.20;58.20
19248;DHT22;9758;48.640;8.148;2022-10-22T12:22:12;22.30;57.80
19248;DHT22;9758;48.640;8.148;2022-10-22T12:24:42;22.40;58.00
19248;DHT22;9758;48.640;8.148;2022-10-22T12:27:22;22.50;58.00
19248;DHT22;9758;48.640;8.148;2022-10-22T12:29:53;22.50;57.50
19248;DHT22;9758;48.640;8.148;2022-10-22T12:32:22;22.60;57.60
19248;DHT22;9758;48.640;8.148;2022-10-22T12:34:50;22.60;57.50
19248;DHT22;9758;48.640;8.148;2022-10-22T12:37:18;22.50;56.70
19248;DHT22;9758;48.640;8.148;2022-10-22T12:39:45;22.50;57.30
19248;DHT22;9758;48.640;8.148;2022-10-22T12:42:13;22.60;57.40
19248;DHT22;9758;48.640;8.148;2022-10-22T12:44:42;22.60;57.50
19248;DHT22;9758;48.640;8.148;2022-10-22T12:47:13;22.70;57.60
19248;DHT22;9758;48.640;8.148;2022-10-22T12:49:42;22.70;57.50
19248;DHT22;9758;48.640;8.148;2022-10-22T12:52:14;22.80;56.80
19248;DHT22;9758;48.640;8.148;2022-10-22T12:54:44;22.80;57.20
19248;DHT22;9758;48.640;8.148;2022-10-22T12:57:12;22.80;57.30
19248;DHT22;9758;48.640;8.148;2022-10-22T12:59:42;22.90;57.40
19248;DHT22;9758;48.640;8.148;2022-10-22T13:02:16;23.00;57.70
19248;DHT22;9758;48.640;8.148;2022-10-22T13:05:07;23.00;57.10
19248;DHT22;9758;48.640;8.148;2022-10-22T13:07:41;23.00;56.90
19248;DHT22;9758;48.640;8.148;2022-10-22T13:10:16;23.10;57.20
19248;DHT22;9758;48.640;8.148;2022-10-22T13:12:50;23.10;56.90
19248;DHT22;9758;48.640;8.148;2022-10-22T13:15:29;23.20;56.80
19248;DHT22;9758;48.640;8.148;2022-10-22T13:18:01;23.20;56.90
19248;DHT22;9758;48.640;8.148;2022-10-22T13:20:28;23.20;56.80
19248;DHT22;9758;48.640;8.148;2022-10-22T13:22:58;23.20;57.00
19248;DHT22;9758;48.640;8.148;2022-10-22T13:25:27;23.20;57.00
19248;DHT22;9758;48.640;8.148;2022-10-22T13:27:56;23.20;57.00
19248;DHT22;9758;48.640;8.148;2022-10-22T13:30:27;23.30;56.90
19248;DHT22;9758;48.640;8.148;2022-10-22T13:32:56;23.20;56.80
19248;DHT22;9758;48.640;8.148;2022-10-22T13:35:24;23.30;56.90
19248;DHT22;9758;48.640;8.148;2022-10-22T13:37:51;23.30;56.90
19248;DHT22;9758;48.640;8.148;2022-10-22T13:40:19;23.30;56.90
19248;DHT22;9758;48.640;8.148;2022-10-22T13:42:45;23.30;56.90
19248;DHT22;9758;48.640;8.148;2022-10-22T13:45:13;23.30;56.80
19248;DHT22;9758;48.640;8.148;2022-10-22T13:47:43;23.40;56.90
19248;DHT22;9758;48.640;8.148;2022-10-22T13:50:13;23.30;56.80
19248;DHT22;9758;48.640;8.148;2022-10-22T13:52:42;23.40;56.80
19248;DHT22;9758;48.640;8.148;2022-10-22T13:55:16;23.40;56.80
19248;DHT22;9758;48.640;8.148;2022-10-22T13:57:43;23.30;56.70
19248;DHT22;9758;48.640;8.148;2022-10-22T14:00:13;23.30;56.70
19248;DHT22;9758;48.640;8.148;2022-10-22T14:02:41;23.30;57.00
19248;DHT22;9758;48.640;8.148;2022-10-22T14:05:08;23.30;56.70
19248;DHT22;9758;48.640;8.148;2022-10-22T14:07:36;23.30;56.60
19248;DHT22;9758;48.640;8.148;2022-10-22T14:10:12;23.30;56.70
19248;DHT22;9758;48.640;8.148;2022-10-22T14:12:39;23.30;56.70
19248;DHT22;9758;48.640;8.148;2022-10-22T14:15:08;23.30;56.80
19248;DHT22;9758;48.640;8.148;2022-10-22T14:17:35;23.30;56.70
19248;DHT22;9758;48.640;8.148;2022-10-22T14:20:04;23.30;56.70
19248;DHT22;9758;48.640;8.148;2022-10-22T14:22:31;23.30;56.80
19248;DHT22;9758;48.640;8.148;2022-10-22T14:24:58;23.30;56.80
19248;DHT22;9758;48.640;8.148;2022-10-22T14:27:25;23.30;56.70
19248;DHT22;9758;48.640;8.148;2022-10-22T14:29:52;23.30;56.60
19248;DHT22;9758;48.640;8.148;2022-10-22T14:32:18;23.30;56.60
19248;DHT22;9758;48.640;8.148;2022-10-22T14:34:46;23.20;57.20
19248;DHT22;9758;48.640;8.148;2022-10-22T14:37:16;23.20;56.70
19248;DHT22;9758;48.640;8.148;2022-10-22T14:39:44;23.30;56.70
19248;DHT22;9758;48.640;8.148;2022-10-22T14:42:16;23.20;56.60
19248;DHT22;9758;48.640;8.148;2022-10-22T14:44:43;23.10;56.60
19248;DHT22;9758;48.640;8.148;2022-10-22T14:47:10;23.10;56.60
19248;DHT22;9758;48.640;8.148;2022-10-22T14:49:37;23.10;56.50
19248;DHT22;9758;48.640;8.148;2022-10-22T14:52:04;23.10;56.60
19248;DHT22;9758;48.640;8.148;2022-10-22T14:54:32;23.00;56.60
19248;DHT22;9758;48.640;8.148;2022-10-22T14:56:59;23.00;56.60
19248;DHT22;9758;48.640;8.148;2022-10-22T14:59:33;22.90;56.60
19248;DHT22;9758;48.640;8.148;2022-10-22T15:02:01;22.90;56.70
19248;DHT22;9758;48.640;8.148;2022-10-22T15:04:27;22.80;56.60
19248;DHT22;9758;48.640;8.148;2022-10-22T15:06:55;22.80;56.60
19248;DHT22;9758;48.640;8.148;2022-10-22T15:09:23;22.70;56.70
19248;DHT22;9758;48.640;8.148;2022-10-22T15:11:51;22.70;56.70
19248;DHT22;9758;48.640;8.148;2022-10-22T15:14:18;22.60;56.70
19248;DHT22;9758;48.640;8.148;2022-10-22T15:16:45;22.60;56.70
19248;DHT22;9758;48.640;8.148;2022-10-22T15:19:12;22.50;56.70
19248;DHT22;9758;48.640;8.148;2022-10-22T15:21:39;22.40;56.70
19248;DHT22;9758;48.640;8.148;2022-10-22T15:24:06;22.40;56.80
19248;DHT22;9758;48.640;8.148;2022-10-22T15:26:33;22.30;56.80
19248;DHT22;9758;48.640;8.148;2022-10-22T15:29:02;22.20;56.80
19248;DHT22;9758;48.640;8.148;2022-10-22T15:31:44;22.20;56.90
19248;DHT22;9758;48.640;8.148;2022-10-22T15:34:11;22.10;56.90
19248;DHT22;9758;48.640;8.148;2022-10-22T15:36:38;22.00;56.80
19248;DHT22;9758;48.640;8.148;2022-10-22T15:39:07;21.90;56.80
19248;DHT22;9758;48.640;8.148;2022-10-22T15:41:34;21.80;56.80
19248;DHT22;9758;48.640;8.148;2022-10-22T15:44:03;21.70;56.90
19248;DHT22;9758;48.640;8.148;2022-10-22T15:46:31;21.60;56.90
19248;DHT22;9758;48.640;8.148;2022-10-22T15:48:58;21.50;57.00
19248;DHT22;9758;48.640;8.148;2022-10-22T15:51:25;21.40;57.10
19248;DHT22;9758;48.640;8.148;2022-10-22T15:53:53;21.30;57.10
19248;DHT22;9758;48.640;8.148;2022-10-22T15:56:21;21.20;57.10
19248;DHT22;9758;48.640;8.148;2022-10-22T15:58:53;21.10;57.10
19248;DHT22;9758;48.640;8.148;2022-10-22T16:01:22;21.00;57.20
19248;DHT22;9758;48.640;8.148;2022-10-22T16:03:51;21.00;57.20